CDT,Max TemperatureF,Mean TemperatureF,Min TemperatureF,Max Dew PointF,MeanDew PointF,Min DewpointF,Max Humidity, Mean Humidity, Min Humidity, Max Sea Level PressureIn, Mean Sea Level PressureIn, Min Sea Level PressureIn, Max VisibilityMiles, Mean VisibilityMiles, Min VisibilityMiles, Max Wind SpeedMPH, Mean Wind SpeedMPH, Max Gust SpeedMPH,PrecipitationIn, CloudCover, Events, WindDirDegrees
2013-7-1,80,70,59,59,56,51,93,68,42,30.02,30.00,29.95,10,10,10,20,9,26,0.00,1,,350
2013-7-2,81,68,55,56,52,50,86,61,36,30.08,30.05,30.01,10,10,10,20,7,27,0.00,1,,360
2013-7-3,84,71,57,57,54,51,87,61,34,30.13,30.06,30.00,10,9,2,16,6,,0.49,4,Rain-Thunderstorm,11
2013-7-4,84,72,60,62,58,53,90,64,37,30.09,30.03,29.98,10,10,5,18,7,23,T,2,Rain-Thunderstorm,144
2013-7-5,87,75,62,62,58,55,84,60,35,30.04,29.99,29.94,10,10,7,17,8,22,0.00,0,,156
2013-7-6,89,78,66,64,62,59,87,62,37,30.02,29.97,29.92,10,10,10,13,9,17,0.00,1,,167
2013-7-7,91,80,69,67,63,58,79,56,32,30.03,29.99,29.96,10,10,10,15,10,20,0.00,0,,167
2013-7-8,92,82,72,69,66,63,79,60,41,30.09,30.04,30.01,10,10,10,16,9,20,0.00,0,,171
2013-7-9,95,84,72,71,68,66,84,63,41,30.07,30.01,29.93,10,10,10,18,10,22,0.00,0,,195
2013-7-10,94,83,71,76,70,69,93,70,46,30.07,29.99,29.91,10,9,2,32,7,38,0.73,4,Rain-Thunderstorm,335
2013-7-11,89,81,72,72,66,58,93,65,37,30.02,29.99,29.95,10,10,10,14,9,18,0.00,0,,52
2013-7-12,88,78,67,61,57,52,73,51,29,30.07,30.02,29.98,10,10,10,20,10,23,0.00,0,,119
2013-7-13,85,75,64,61,58,54,73,57,40,30.06,30.02,29.95,10,10,10,15,8,20,0.00,0,,120
2013-7-14,87,76,64,61,58,55,84,59,34,30.07,30.02,29.99,10,10,10,16,9,22,0.00,0,,127
2013-7-15,89,80,70,70,66,61,93,70,46,30.19,30.12,30.08,10,10,2,24,10,29,0.16,2,Rain,124
2013-7-16,91,81,71,72,70,65,93,70,47,30.27,30.23,30.17,10,9,2,23,7,30,0.19,3,Rain-Thunderstorm,129
2013-7-17,92,81,70,71,69,67,90,69,47,30.32,30.26,30.19,10,10,10,15,5,19,T,1,Rain-Thunderstorm,103
2013-7-18,94,83,72,71,66,63,79,59,38,30.20,30.11,30.01,10,10,10,13,5,17,0.00,0,,179
2013-7-19,95,83,71,70,68,66,84,62,39,30.02,29.97,29.91,10,10,10,18,8,22,0.00,0,,180
2013-7-20,94,82,70,70,67,64,93,70,47,30.00,29.91,29.84,10,10,6,28,8,36,0.18,2,Rain-Thunderstorm,219
2013-7-21,84,77,70,72,70,67,100,85,69,29.94,29.89,29.84,10,9,2,25,4,32,0.27,5,Rain,194
2013-7-22,86,77,67,72,68,63,93,72,51,29.90,29.86,29.82,10,9,5,22,10,29,0.15,4,Rain-Thunderstorm,203
2013-7-23,94,83,72,74,70,64,87,70,52,29.87,29.84,29.78,10,10,10,28,10,35,0.00,0,Thunderstorm,235
2013-7-24,87,78,68,69,66,60,93,69,44,30.02,29.95,29.86,10,10,10,14,7,29,0.00,3,,13
2013-7-25,88,75,62,64,60,57,84,61,37,30.10,30.05,30.01,10,10,10,13,6,15,0.00,0,,106
2013-7-26,73,69,64,70,66,62,97,83,68,30.08,30.04,29.99,10,7,0,15,7,18,1.51,7,Fog-Rain-Thunderstorm,144
2013-7-27,76,70,63,65,61,56,100,75,50,30.07,30.03,29.97,10,6,0,14,6,17,0.00,3,Fog,324
2013-7-28,72,67,61,64,60,58,93,80,66,30.06,30.03,30.00,10,10,10,12,4,13,T,5,Rain,210
2013-7-29,83,75,66,71,67,63,93,79,65,30.12,30.05,30.00,10,10,6,18,11,23,0.39,3,Rain-Thunderstorm,147
2013-7-30,83,77,70,74,71,68,100,87,74,30.08,30.03,29.97,10,7,1,26,7,32,2.26,8,Rain-Thunderstorm,183
2013-7-31,85,77,69,73,71,66,100,78,55,30.10,30.05,29.99,10,7,0,20,7,25,0.00,5,Fog,350